Time;durP1;ratioP1;P1;durP2;ratioP2;P2;SDS_P1;SDS_P2;PMS_P1;PMS_P2;Temp;Humidity;BMP_temperature;BMP_pressure;BME280_temperature;BME280_humidity;BME280_pressure;Samples;Min_cycle;Max_cycle;Signal;HPM_P1;HPM_P2
2022/09/23 00:01:47;;;;;;;7.75;3.30;;;;;;;-148.88;85.44;76431.34;5075991;28;20367;-76
2022/09/23 00:04:12;;;;;;;6.07;3.10;;;;;;;-148.88;85.55;76431.34;5076069;28;20101;-77
2022/09/23 00:06:38;;;;;;;6.03;3.83;;;;;;;-148.88;85.63;76431.34;5076071;28;20423;-76
2022/09/23 00:09:04;;;;;;;5.18;3.50;;;;;;;-148.88;85.44;76427.28;5075982;28;20017;-76
2022/09/23 00:11:29;;;;;;;7.22;3.30;;;;;;;-148.88;84.88;76427.28;5075814;28;20104;-77
2022/09/23 00:13:57;;;;;;;7.28;3.25;;;;;;;-148.88;85.70;76435.41;5075601;28;20020;-77
2022/09/23 00:16:32;;;;;;;6.53;3.83;;;;;;;-148.88;85.47;76435.41;5075712;28;20035;-76
2022/09/23 00:18:59;;;;;;;4.68;3.00;;;;;;;-148.88;85.66;76439.47;5057600;28;20027;-77
2022/09/23 00:21:25;;;;;;;6.88;3.45;;;;;;;-148.88;86.06;76447.59;5075688;28;20442;-77
2022/09/23 00:23:50;;;;;;;5.30;3.22;;;;;;;-148.88;86.17;76435.41;5075421;28;20585;-77
2022/09/23 00:26:18;;;;;;;5.22;2.97;;;;;;;-148.88;86.25;76437.44;5075412;28;20093;-77
2022/09/23 00:28:43;;;;;;;5.70;3.45;;;;;;;-148.88;86.43;76439.47;5075624;28;20506;-77
2022/09/23 00:31:18;;;;;;;4.90;2.88;;;;;;;-148.88;85.91;76435.41;5075228;28;20032;-77
2022/09/23 00:33:44;;;;;;;5.32;2.80;;;;;;;-148.88;85.61;76437.44;5075158;28;20031;-77
2022/09/23 00:36:14;;;;;;;6.25;2.90;;;;;;;-148.88;86.06;76439.47;5057338;28;20025;-77
2022/09/23 00:38:40;;;;;;;5.25;3.20;;;;;;;-148.88;85.74;76431.34;5075381;28;20016;-76
2022/09/23 00:41:06;;;;;;;6.32;3.05;;;;;;;-148.88;85.71;76429.31;5075276;28;20463;-77
2022/09/23 00:43:50;;;;;;;4.95;2.90;;;;;;;-148.88;85.81;76435.41;5075100;28;20028;-77
2022/09/23 00:46:21;;;;;;;;;;;;;;;-148.88;85.98;76431.34;5075592;28;20111;-76
2022/09/23 00:48:48;;;;;;;5.10;2.97;;;;;;;-148.88;86.20;76435.41;5075023;28;19908;-77
2022/09/23 00:51:22;;;;;;;5.50;2.80;;;;;;;-148.88;85.91;76429.31;5071619;22;20522;-85
2022/09/23 00:53:49;;;;;;;;;;;;;;;-148.88;85.86;76431.34;5042188;28;20033;-85
2022/09/23 00:56:22;;;;;;;6.68;3.10;;;;;;;-148.88;86.05;76435.41;5040954;28;19913;-85
2022/09/23 00:58:51;;;;;;;6.78;2.72;;;;;;;-148.88;86.40;76435.41;5041352;28;20371;-86
2022/09/23 01:01:21;;;;;;;4.20;3.08;;;;;;;-148.88;86.37;76435.41;5055051;28;20056;-85
2022/09/23 01:03:48;;;;;;;6.13;2.88;;;;;;;-148.88;86.25;76439.47;5087970;22;20047;-83
2022/09/23 01:06:13;;;;;;;5.75;3.28;;;;;;;-148.88;86.48;76443.53;5114816;28;20032;-82
2022/09/23 01:08:41;;;;;;;5.72;3.25;;;;;;;-148.88;86.82;76439.47;5115409;28;20094;-82
2022/09/23 01:11:34;;;;;;;7.22;3.00;;;;;;;-148.88;86.53;76443.53;5120378;28;20528;-82
2022/09/23 01:14:30;;;;;;;5.43;2.95;;;;;;;-148.88;86.65;76451.66;5134892;28;20034;-83
2022/09/23 01:17:12;;;;;;;5.15;2.90;;;;;;;-148.88;87.08;76445.56;5129740;28;20027;-84
2022/09/23 01:19:56;;;;;;;7.47;3.03;;;;;;;-148.88;86.67;76445.56;5115766;28;20054;-82
2022/09/23 01:22:40;;;;;;;5.32;3.08;;;;;;;-148.88;86.72;76439.47;5114287;28;20019;-83
2022/09/23 01:25:43;;;;;;;6.18;2.78;;;;;;;-148.88;87.25;76443.53;5116974;28;20031;-83
2022/09/23 01:28:19;;;;;;;4.63;2.88;;;;;;;-148.88;86.69;76439.47;5113959;28;20051;-83
2022/09/23 01:31:03;;;;;;;5.13;3.25;;;;;;;-148.88;86.90;76445.56;5115453;28;20038;-83
2022/09/23 01:33:54;;;;;;;3.63;2.60;;;;;;;-148.88;87.33;76447.59;5115367;28;20053;-83
2022/09/23 01:36:38;;;;;;;4.38;2.97;;;;;;;-148.88;87.24;76447.59;5115135;28;20081;-83
2022/09/23 01:39:19;;;;;;;5.28;2.70;;;;;;;-148.88;87.77;76441.50;5115205;28;20016;-83
2022/09/23 01:41:49;;;;;;;4.40;2.60;;;;;;;-148.88;87.17;76441.50;5114968;28;20061;-83
2022/09/23 01:44:32;;;;;;;4.95;2.47;;;;;;;-148.88;87.58;76443.53;5114065;28;20112;-83
2022/09/23 01:47:09;;;;;;;5.10;2.25;;;;;;;-148.88;87.50;76439.47;5112968;28;20370;-82
2022/09/23 01:49:56;;;;;;;6.68;2.60;;;;;;;-148.88;87.89;76447.59;5112812;28;20089;-82
2022/09/23 01:52:37;;;;;;;4.90;2.55;;;;;;;-148.88;87.97;76449.63;5113200;28;20023;-82
2022/09/23 01:55:18;;;;;;;5.40;2.50;;;;;;;-148.88;88.05;76451.66;5112905;28;20019;-83
2022/09/23 01:57:48;;;;;;;4.18;2.58;;;;;;;-148.88;88.26;76451.66;5113098;28;20023;-83
2022/09/23 02:06:18;;;;;;;3.95;2.05;;;;;;;-148.88;88.11;76451.66;5074851;28;20405;-83
2022/09/23 02:08:51;;;;;;;4.87;2.37;;;;;;;-148.88;88.10;76451.66;5074751;28;20051;-83
2022/09/23 02:11:17;;;;;;;4.57;2.10;;;;;;;-148.88;87.99;76449.63;5074677;28;20269;-83
2022/09/23 02:13:54;;;;;;;3.63;2.33;;;;;;;-148.88;88.11;76445.56;5095245;28;20260;-83
2022/09/23 02:16:44;;;;;;;3.60;2.40;;;;;;;-148.88;88.16;76451.66;5076370;28;20024;-83
2022/09/23 02:19:21;;;;;;;3.67;2.03;;;;;;;-148.88;87.74;76453.69;5094303;28;20484;-82
2022/09/23 02:21:54;;;;;;;3.88;2.40;;;;;;;-148.88;87.78;76455.72;5093849;28;20059;-83
2022/09/23 02:24:26;;;;;;;3.90;1.92;;;;;;;-148.88;87.97;76459.78;5094037;28;20477;-82
2022/09/23 02:27:00;;;;;;;5.63;2.70;;;;;;;-148.88;87.94;76463.84;5094145;28;20471;-84
2022/09/23 02:29:36;;;;;;;4.70;2.30;;;;;;;-148.88;88.23;76463.84;5094209;28;20071;-83
2022/09/23 02:32:07;;;;;;;5.80;2.38;;;;;;;-148.88;88.31;76455.72;5093707;28;20099;-83
2022/09/23 02:34:32;;;;;;;3.22;2.10;;;;;;;-148.88;88.07;76451.66;5075373;28;20131;-83
2022/09/23 02:37:10;;;;;;;6.57;2.43;;;;;;;-148.88;88.44;76455.72;5075767;28;20056;-82
2022/09/23 02:39:46;;;;;;;4.93;2.40;;;;;;;-148.88;88.48;76457.75;5076387;28;20750;-81
2022/09/23 02:42:17;;;;;;;4.82;2.38;;;;;;;-148.88;88.26;76457.75;5075680;28;20024;-83
2022/09/23 02:44:42;;;;;;;3.63;2.20;;;;;;;-148.88;88.46;76455.72;5094071;28;20142;-82
2022/09/23 02:47:09;;;;;;;3.97;2.28;;;;;;;-148.88;88.55;76455.72;5075242;28;20032;-83
2022/09/23 02:49:35;;;;;;;5.53;2.25;;;;;;;-148.88;88.67;76453.69;5093547;28;20020;-82
2022/09/23 02:52:03;;;;;;;4.82;2.40;;;;;;;-148.88;88.92;76455.72;5094043;28;20034;-84
2022/09/23 02:54:29;;;;;;;4.10;2.10;;;;;;;-148.88;88.37;76451.66;5075435;28;20024;-85
2022/09/23 02:56:56;;;;;;;6.72;2.38;;;;;;;-148.88;88.75;76449.63;5075488;28;20023;-83
2022/09/23 02:59:22;;;;;;;4.47;2.33;;;;;;;-148.88;88.26;76445.56;5092998;28;20098;-83
2022/09/23 03:02:12;;;;;;;7.95;2.85;;;;;;;-148.88;88.36;76443.53;5093833;28;20421;-84
2022/09/23 03:05:22;;;;;;;3.67;2.28;;;;;;;-148.88;88.06;76447.59;5074912;28;20375;-84
2022/09/23 03:08:13;;;;;;;6.28;2.28;;;;;;;-148.88;88.36;76451.66;5034200;28;20083;-83
2022/09/23 03:11:15;;;;;;;5.07;2.42;;;;;;;-148.88;88.48;76447.59;5093620;28;20461;-83
2022/09/23 03:13:52;;;;;;;3.92;2.38;;;;;;;-148.88;88.37;76449.63;5080416;28;20088;-85
2022/09/23 03:16:33;;;;;;;4.63;2.40;;;;;;;-148.88;88.55;76443.53;5093225;28;20031;-84
2022/09/23 03:19:34;;;;;;;3.28;2.08;;;;;;;-148.88;88.48;76445.56;5094256;28;20040;-84
2022/09/23 03:22:20;;;;;;;4.80;2.13;;;;;;;-148.88;88.79;76447.59;5079184;28;20510;-84
2022/09/23 03:24:47;;;;;;;3.45;2.22;;;;;;;-148.88;88.62;76449.63;5098819;28;20054;-85
2022/09/23 03:27:17;;;;;;;4.22;2.53;;;;;;;-148.88;88.69;76451.66;5096717;28;20032;-83
2022/09/23 03:29:47;;;;;;;3.35;2.50;;;;;;;-148.88;88.56;76447.59;5098674;28;20465;-84
2022/09/23 03:32:16;;;;;;;5.18;2.55;;;;;;;-148.88;88.84;76443.53;5079071;28;20020;-85
2022/09/23 03:34:46;;;;;;;6.13;2.30;;;;;;;-148.88;89.14;76447.59;5097606;28;20035;-85
2022/09/23 03:37:34;;;;;;;3.03;1.92;;;;;;;-148.88;89.07;76455.72;5097314;28;20331;-84
2022/09/23 03:40:08;;;;;;;5.22;2.38;;;;;;;-148.88;89.09;76453.69;5097598;28;20119;-84
2022/09/23 03:42:35;;;;;;;3.67;1.80;;;;;;;-148.88;89.07;76447.59;5078785;28;20070;-85
2022/09/23 03:45:07;;;;;;;5.18;2.88;;;;;;;-148.88;88.97;76447.59;5079150;28;20024;-85
2022/09/23 03:47:33;;;;;;;3.42;2.10;;;;;;;-148.88;88.77;76443.53;5079391;28;20044;-85
2022/09/23 03:49:59;;;;;;;4.40;2.55;;;;;;;-148.88;88.36;76441.50;5097556;28;20024;-85
2022/09/23 03:52:25;;;;;;;4.25;2.00;;;;;;;-148.88;88.79;76445.56;5097421;28;20020;-85
2022/09/23 03:54:51;;;;;;;3.30;2.60;;;;;;;-148.88;88.91;76441.50;5078904;28;20023;-85
2022/09/23 03:57:17;;;;;;;4.35;2.28;;;;;;;-148.88;88.96;76443.53;5078962;28;20020;-84
2022/09/23 03:59:42;;;;;;;6.50;2.40;;;;;;;-148.88;88.92;76435.41;5079572;28;20023;-84
2022/09/23 04:02:08;;;;;;;4.20;2.00;;;;;;;-148.88;88.70;76441.50;5079383;28;20016;-84
2022/09/23 04:04:39;;;;;;;5.13;2.15;;;;;;;-148.88;88.94;76439.47;5079163;28;20059;-84
2022/09/23 04:07:04;;;;;;;4.93;2.35;;;;;;;-148.88;88.82;76445.56;5096810;28;20063;-85
2022/09/23 04:09:29;;;;;;;6.43;2.70;;;;;;;-148.88;89.31;76443.53;5096725;28;20024;-83
2022/09/23 04:11:55;;;;;;;4.57;2.65;;;;;;;-148.88;89.02;76439.47;5096371;28;20069;-84
2022/09/23 04:14:21;;;;;;;5.75;2.67;;;;;;;-148.88;89.49;76435.41;5078012;28;20043;-84
2022/09/23 04:16:47;;;;;;;3.78;1.85;;;;;;;-148.88;89.18;76435.41;5078377;28;20024;-84
2022/09/23 04:19:14;;;;;;;4.13;2.20;;;;;;;-148.88;89.43;76439.47;5096809;28;20024;-85
2022/09/23 04:21:41;;;;;;;3.70;2.38;;;;;;;-148.88;89.25;76437.44;5096745;28;20024;-84
2022/09/23 04:24:06;;;;;;;3.03;2.10;;;;;;;-148.88;89.25;76435.41;5078204;28;20024;-86
2022/09/23 04:26:33;;;;;;;3.00;2.10;;;;;;;-148.88;89.76;76443.53;5078800;28;20027;-86
2022/09/23 04:28:58;;;;;;;3.08;2.10;;;;;;;-148.88;89.22;76435.41;5097159;28;20085;-85
2022/09/23 04:31:24;;;;;;;5.65;2.22;;;;;;;-148.88;89.47;76439.47;5096363;28;20478;-86
2022/09/23 04:33:51;;;;;;;3.22;1.95;;;;;;;-148.88;89.71;76439.47;5078576;28;20023;-85
2022/09/23 04:36:17;;;;;;;4.43;2.78;;;;;;;-148.88;89.84;76437.44;5078061;28;20445;-84
2022/09/23 04:38:44;;;;;;;4.35;2.70;;;;;;;-148.88;89.90;76441.50;5078252;28;20173;-85
2022/09/23 04:41:09;;;;;;;4.45;2.20;;;;;;;-148.88;89.51;76443.53;5078411;28;20061;-86
2022/09/23 04:43:35;;;;;;;3.63;2.00;;;;;;;-148.88;89.31;76437.44;5096429;28;20427;-86
2022/09/23 04:46:02;;;;;;;7.43;2.65;;;;;;;-148.88;89.92;76443.53;5095683;28;20035;-84
2022/09/23 04:48:28;;;;;;;3.97;2.33;;;;;;;-148.88;89.71;76443.53;5077617;28;20020;-84
2022/09/23 04:51:00;;;;;;;3.60;2.28;;;;;;;-148.88;89.63;76447.59;5095519;28;20020;-85
2022/09/23 04:53:25;;;;;;;4.63;2.10;;;;;;;-148.88;89.07;76445.56;5077369;28;20016;-85
2022/09/23 04:55:51;;;;;;;4.25;2.35;;;;;;;-148.88;89.29;76443.53;5078206;28;20024;-85
2022/09/23 04:58:16;;;;;;;4.57;2.00;;;;;;;-148.88;89.40;76447.59;5077521;28;20035;-85
2022/09/23 05:00:41;;;;;;;6.60;1.83;;;;;;;-148.88;89.43;76447.59;5095579;28;20034;-85
2022/09/23 05:03:07;;;;;;;4.70;2.67;;;;;;;-148.88;89.88;76453.69;5077144;28;20036;-85
2022/09/23 05:05:32;;;;;;;3.88;2.63;;;;;;;-148.88;89.94;76455.72;5077062;28;20052;-85
2022/09/23 05:07:57;;;;;;;5.53;2.60;;;;;;;-148.88;89.76;76455.72;5096892;28;20024;-87
2022/09/23 05:10:22;;;;;;;4.53;2.45;;;;;;;-148.88;89.88;76463.84;5095894;28;20020;-88
2022/09/23 05:12:48;;;;;;;4.82;2.38;;;;;;;-148.88;90.01;76463.84;5095571;28;20031;-88
2022/09/23 05:15:14;;;;;;;5.38;2.80;;;;;;;-148.88;90.40;76459.78;5095576;28;20020;-88
2022/09/23 05:17:43;;;;;;;4.80;2.25;;;;;;;-148.88;90.19;76455.72;5095168;28;20020;-87
2022/09/23 05:20:09;;;;;;;3.30;2.22;;;;;;;-148.88;90.41;76459.78;5095138;28;20062;-87
2022/09/23 05:22:35;;;;;;;5.43;2.70;;;;;;;-148.88;90.06;76459.78;5095116;28;20023;-87
2022/09/23 05:25:01;;;;;;;3.83;2.75;;;;;;;-148.88;89.98;76459.78;5095007;28;20032;-88
2022/09/23 05:27:27;;;;;;;4.18;1.95;;;;;;;-148.88;90.09;76467.91;5094821;28;20024;-87
2022/09/23 05:29:53;;;;;;;3.88;2.05;;;;;;;-148.88;89.96;76467.91;5095370;28;20016;-86
2022/09/23 05:32:18;;;;;;;5.53;2.40;;;;;;;-148.88;89.96;76463.84;5095117;28;20393;-87
2022/09/23 05:34:43;;;;;;;2.83;2.08;;;;;;;-148.88;90.34;76463.84;5094787;28;20024;-87
2022/09/23 05:37:09;;;;;;;3.90;1.95;;;;;;;-148.88;90.22;76457.75;5076477;28;20110;-87
2022/09/23 05:39:35;;;;;;;5.00;2.60;;;;;;;-148.88;90.11;76451.66;5094873;28;20027;-87
2022/09/23 05:42:00;;;;;;;3.58;2.53;;;;;;;-148.88;89.90;76447.59;5094613;28;20031;-87
2022/09/23 05:44:25;;;;;;;6.45;2.67;;;;;;;-148.88;90.04;76451.66;5094854;28;20466;-87
2022/09/23 05:46:51;;;;;;;7.88;2.67;;;;;;;-148.88;89.98;76451.66;5094463;28;20032;-87
2022/09/23 05:49:16;;;;;;;4.97;2.78;;;;;;;-148.88;90.18;76455.72;5076229;28;20028;-87
2022/09/23 05:51:41;;;;;;;5.45;2.30;;;;;;;-148.88;90.19;76455.72;5075797;28;20030;-87
2022/09/23 05:54:07;;;;;;;5.45;2.78;;;;;;;-148.88;90.12;76447.59;5094663;28;20027;-87
2022/09/23 05:56:33;;;;;;;5.50;2.80;;;;;;;-148.88;89.98;76449.63;5094330;28;20401;-87
2022/09/23 05:59:00;;;;;;;3.40;1.92;;;;;;;-148.88;89.75;76455.72;5094354;28;20028;-87
2022/09/23 06:01:27;;;;;;;4.38;2.10;;;;;;;-148.88;89.83;76451.66;5094313;28;20583;-87
2022/09/23 06:03:55;;;;;;;3.40;2.10;;;;;;;-148.88;90.21;76455.72;5076064;28;20161;-88
2022/09/23 06:06:26;;;;;;;5.00;2.28;;;;;;;-148.88;90.32;76447.59;5093894;28;20028;-87
2022/09/23 06:08:51;;;;;;;4.43;2.33;;;;;;;-148.88;90.16;76443.53;5094023;28;20477;-87
2022/09/23 06:11:16;;;;;;;6.05;2.38;;;;;;;-148.88;90.27;76445.56;5076145;28;20035;-87
2022/09/23 06:13:42;;;;;;;5.60;2.47;;;;;;;-148.88;90.44;76447.59;5094096;28;20074;-87
2022/09/23 06:16:12;;;;;;;3.17;2.17;;;;;;;-148.88;90.77;76437.44;5093917;28;20024;-88
2022/09/23 06:18:40;;;;;;;5.40;3.10;;;;;;;-148.88;90.60;76431.34;5093944;28;20489;-87
2022/09/23 06:21:06;;;;;;;5.80;2.90;;;;;;;-148.88;90.34;76427.28;5075767;28;20046;-87
2022/09/23 06:23:31;;;;;;;5.20;2.30;;;;;;;-148.88;90.60;76425.25;5094523;28;20023;-87
2022/09/23 06:26:01;;;;;;;6.70;3.22;;;;;;;-148.88;91.16;76431.34;5093866;28;20544;-87
2022/09/23 06:28:31;;;;;;;4.53;3.30;;;;;;;-148.88;91.19;76423.19;5075762;28;20019;-87
2022/09/23 06:30:58;;;;;;;4.90;2.60;;;;;;;-148.88;91.31;76415.06;5076499;28;20028;-88
2022/09/23 06:33:26;;;;;;;6.55;3.05;;;;;;;-148.88;90.92;76400.84;5075976;28;20026;-87
2022/09/23 06:36:00;;;;;;;4.43;3.10;;;;;;;-148.88;90.76;76390.69;5076290;28;20077;-87
2022/09/23 06:38:26;;;;;;;9.18;2.72;;;;;;;-148.88;90.56;76386.63;5076066;28;20481;-87
2022/09/23 06:40:54;;;;;;;5.55;2.72;;;;;;;-148.88;89.48;76374.44;5075568;28;20028;-87
2022/09/23 06:43:21;;;;;;;3.88;2.30;;;;;;;-148.88;89.26;76362.25;5075690;28;20031;-87
2022/09/23 06:45:46;;;;;;;6.80;2.55;;;;;;;-148.88;88.62;76358.19;5075559;28;20047;-87
2022/09/23 06:48:11;;;;;;;5.78;3.13;;;;;;;-148.88;88.77;76362.25;5093888;28;20039;-88
2022/09/23 06:50:37;;;;;;;6.82;3.20;;;;;;;-148.88;89.47;76341.94;5093727;28;20044;-87
2022/09/23 06:53:03;;;;;;;6.25;2.88;;;;;;;-148.88;89.73;76339.91;5094075;28;20435;-88
2022/09/23 06:55:29;;;;;;;6.68;2.63;;;;;;;-148.88;88.99;76331.78;5093958;28;20041;-87
2022/09/23 06:57:57;;;;;;;5.60;2.63;;;;;;;-148.88;89.12;76325.69;5093793;28;20024;-87
2022/09/23 07:00:23;;;;;;;5.43;3.15;;;;;;;-148.88;88.83;76317.56;5093355;28;20393;-87
2022/09/23 07:02:48;;;;;;;5.72;3.58;;;;;;;-148.88;88.36;76307.41;5093622;28;20028;-87
2022/09/23 07:05:16;;;;;;;6.93;3.80;;;;;;;-148.88;88.09;76307.41;5076199;28;20024;-87
2022/09/23 07:07:42;;;;;;;6.03;3.35;;;;;;;-148.88;88.02;76299.28;5075526;28;20046;-88
2022/09/23 07:10:09;;;;;;;4.85;3.05;;;;;;;-148.88;88.50;76281.00;5093397;28;20028;-87
2022/09/23 07:12:34;;;;;;;4.82;3.25;;;;;;;-148.88;88.33;76264.75;5113255;28;20055;-87
2022/09/23 07:14:59;;;;;;;6.97;3.85;;;;;;;-148.88;88.61;76256.63;5100533;28;20008;-86
2022/09/23 07:17:25;;;;;;;4.68;3.22;;;;;;;-148.88;88.40;76260.69;5102703;28;20025;-87
2022/09/23 07:19:51;;;;;;;4.82;3.40;;;;;;;-148.88;88.27;76248.50;5093557;28;20509;-87
2022/09/23 07:22:17;;;;;;;5.57;3.50;;;;;;;-148.88;88.31;76252.56;5093367;28;20027;-87
2022/09/23 07:24:45;;;;;;;7.03;3.95;;;;;;;-148.88;88.27;76244.44;5093012;28;20476;-87
2022/09/23 07:27:13;;;;;;;4.47;3.55;;;;;;;-148.88;88.53;76236.31;5075118;28;20028;-87
2022/09/23 07:29:38;;;;;;;6.15;3.75;;;;;;;-148.88;88.58;76232.25;5093097;28;20032;-87
2022/09/23 07:32:03;;;;;;;6.45;3.75;;;;;;;-148.88;87.16;76222.09;5092996;28;20028;-87
2022/09/23 07:34:29;;;;;;;6.60;4.03;;;;;;;-148.88;86.65;76211.94;5075074;28;20024;-87
2022/09/23 07:36:56;;;;;;;7.07;3.70;;;;;;;-148.88;86.84;76207.88;5093251;28;20098;-87
2022/09/23 07:39:22;;;;;;;5.68;3.85;;;;;;;-148.88;85.72;76189.59;5093458;28;20031;-87
2022/09/23 07:41:48;;;;;;;6.28;3.88;;;;;;;-148.88;84.66;76175.38;5075448;28;20365;-87
2022/09/23 07:44:13;;;;;;;5.57;3.70;;;;;;;-148.88;84.66;76163.19;5096724;22;20064;-85
2022/09/23 07:46:39;;;;;;;7.85;3.80;;;;;;;-148.88;84.91;76155.06;5056159;28;20526;-85
2022/09/23 07:49:04;;;;;;;5.65;3.67;;;;;;;-148.88;84.62;76138.81;5073159;28;20028;-85
2022/09/23 07:51:33;;;;;;;5.80;3.90;;;;;;;-148.88;83.89;76126.59;5055056;28;20028;-86
2022/09/23 07:53:59;;;;;;;7.45;3.85;;;;;;;-148.88;83.26;76126.59;5055057;28;20035;-85
2022/09/23 07:56:27;;;;;;;5.28;3.25;;;;;;;-148.88;84.35;76118.47;5071840;28;20029;-85
2022/09/23 07:58:58;;;;;;;7.10;3.83;;;;;;;-148.88;84.09;76102.22;5072906;28;20107;-84
2022/09/23 08:01:32;;;;;;;6.68;3.63;;;;;;;-148.88;83.20;76092.06;5071273;28;20059;-85
2022/09/23 08:03:58;;;;;;;;;;;;;;;-148.88;83.25;76077.84;5072853;28;20478;-85
2022/09/23 08:06:25;;;;;;;7.70;3.90;;;;;;;-148.88;83.58;76063.63;5072601;28;20350;-86
2022/09/23 08:08:50;;;;;;;4.43;3.70;;;;;;;-148.88;83.20;76041.28;5072668;28;20036;-84
2022/09/23 08:11:16;;;;;;;5.75;4.00;;;;;;;-148.88;83.53;76029.09;5073159;28;20045;-84
2022/09/23 08:13:41;;;;;;;6.60;3.90;;;;;;;-148.88;82.69;76012.84;5073180;28;20017;-85
2022/09/23 08:16:08;;;;;;;6.68;3.85;;;;;;;-148.88;82.09;75990.50;5075116;28;20044;-84
2022/09/23 08:18:33;;;;;;;5.65;3.95;;;;;;;-148.88;81.65;75978.31;5075791;28;20039;-85
2022/09/23 08:20:58;;;;;;;5.32;3.72;;;;;;;-148.88;80.56;75962.06;5075334;28;20111;-85
2022/09/23 08:23:32;;;;;;;6.53;3.35;;;;;;;-148.88;79.14;75943.78;5075007;28;20091;-85
2022/09/23 08:26:02;;;;;;;5.40;3.50;;;;;;;-148.88;77.90;75929.56;5079352;28;20491;-85
2022/09/23 08:28:32;;;;;;;4.15;2.92;;;;;;;-148.88;77.74;75907.22;5075679;28;20035;-84
2022/09/23 08:30:58;;;;;;;6.20;3.53;;;;;;;-148.88;77.91;75882.84;5075629;28;20017;-84
2022/09/23 08:33:23;;;;;;;6.68;3.28;;;;;;;-148.88;77.31;75868.63;5076226;28;20036;-85
2022/09/23 08:35:48;;;;;;;7.15;3.17;;;;;;;-148.88;76.27;75850.34;5075952;28;20020;-84
2022/09/23 08:38:14;;;;;;;4.85;2.97;;;;;;;-148.88;75.48;75825.97;5075813;28;20024;-84
2022/09/23 08:40:42;;;;;;;6.65;3.20;;;;;;;-148.88;74.83;75801.59;5076385;28;20016;-84
2022/09/23 08:43:16;;;;;;;4.05;2.85;;;;;;;-148.88;75.58;75773.16;5076085;28;20025;-84
2022/09/23 08:45:49;;;;;;;4.90;2.95;;;;;;;-148.88;72.44;75760.97;5074691;28;20162;-84
2022/09/23 08:48:40;;;;;;;3.88;2.67;;;;;;;-148.88;71.75;75728.47;5075699;28;20024;-85
2022/09/23 08:51:14;;;;;;;5.93;2.63;;;;;;;-148.88;71.99;75708.16;5074781;28;20037;-85
2022/09/23 08:53:41;;;;;;;7.65;3.13;;;;;;;-148.88;70.15;75687.84;5074428;28;20028;-85
2022/09/23 08:56:12;;;;;;;4.35;2.30;;;;;;;-148.88;68.41;75651.28;5074125;28;20028;-85
2022/09/23 08:58:52;;;;;;;3.92;2.38;;;;;;;-148.88;68.24;75624.88;5074537;28;20028;-86
2022/09/23 09:01:23;;;;;;;6.57;2.60;;;;;;;-148.88;66.72;75626.91;5075386;28;20020;-85
2022/09/23 09:03:54;;;;;;;4.60;3.03;;;;;;;-148.88;66.69;75602.53;5074942;28;20024;-85
2022/09/23 09:06:26;;;;;;;5.30;2.35;;;;;;;-148.88;66.38;75586.31;5073721;28;20036;-85
2022/09/23 09:08:56;;;;;;;5.05;2.65;;;;;;;-148.88;66.22;75568.03;5074933;28;20039;-84
2022/09/23 09:11:30;;;;;;;4.47;2.85;;;;;;;-148.88;66.68;75557.88;5074086;28;20083;-85
2022/09/23 09:14:11;;;;;;;7.38;3.10;;;;;;;-148.88;65.12;75533.50;5074477;28;20036;-84
2022/09/23 09:16:54;;;;;;;5.03;2.75;;;;;;;-148.88;65.27;75513.19;5074218;28;20384;-85
2022/09/23 09:19:26;;;;;;;5.25;2.70;;;;;;;-148.88;64.79;75486.78;5073835;28;20025;-85
2022/09/23 09:21:53;;;;;;;5.82;2.70;;;;;;;-148.88;64.39;75472.56;5073968;28;20112;-85
2022/09/23 09:24:32;;;;;;;3.63;2.47;;;;;;;-148.88;62.85;75452.25;5074401;28;20031;-84
2022/09/23 09:27:10;;;;;;;4.55;2.40;;;;;;;-148.88;61.88;75429.91;5074913;28;20043;-85
2022/09/23 09:29:39;;;;;;;6.75;3.03;;;;;;;-148.88;62.68;75411.63;5073507;28;20040;-85
2022/09/23 09:32:46;;;;;;;7.13;2.95;;;;;;;-148.88;60.97;75387.25;5073307;28;20024;-84
2022/09/23 09:35:32;;;;;;;6.07;2.50;;;;;;;-148.88;62.27;75362.88;5073293;28;20039;-85
2022/09/23 09:37:57;;;;;;;4.47;2.60;;;;;;;-148.88;60.45;75368.97;5073390;28;20028;-85
2022/09/23 09:40:22;;;;;;;5.32;2.65;;;;;;;-148.88;61.56;75344.59;5073990;28;20069;-85
2022/09/23 09:42:49;;;;;;;5.15;2.38;;;;;;;-148.88;61.33;75318.19;5073439;28;20070;-85
2022/09/23 09:45:33;;;;;;;7.03;2.92;;;;;;;-148.88;59.04;75312.09;5075035;28;20024;-85
2022/09/23 09:48:10;;;;;;;5.72;2.08;;;;;;;-148.88;59.11;75297.88;5073654;28;20382;-85
2022/09/23 09:50:52;;;;;;;4.60;2.53;;;;;;;-148.88;57.70;75281.66;5073580;28;20028;-85
2022/09/23 09:53:29;;;;;;;3.65;2.30;;;;;;;-148.88;60.04;75236.97;5074392;28;20122;-85
2022/09/23 09:56:07;;;;;;;4.72;2.15;;;;;;;-148.88;57.92;75208.53;5074428;28;20024;-85
2022/09/23 09:58:46;;;;;;;5.88;2.50;;;;;;;-148.88;53.87;75208.53;5074105;28;20032;-86
2022/09/23 10:01:28;;;;;;;4.80;2.72;;;;;;;-148.88;55.20;75261.34;5075072;28;20090;-85
2022/09/23 10:03:59;;;;;;;5.95;2.67;;;;;;;-148.88;52.52;75271.50;5073088;28;20070;-84
2022/09/23 10:06:31;;;;;;;5.88;2.67;;;;;;;-148.88;55.78;75251.19;5074344;28;20020;-85
2022/09/23 10:09:20;;;;;;;5.40;2.70;;;;;;;-148.88;56.94;75226.81;5073748;28;20031;-85
2022/09/23 10:12:12;;;;;;;4.05;2.25;;;;;;;-148.88;55.35;75210.56;5072738;28;20024;-85
2022/09/23 10:14:37;;;;;;;6.20;2.50;;;;;;;-148.88;55.91;75212.59;5073303;28;20047;-85
2022/09/23 10:17:05;;;;;;;4.15;2.60;;;;;;;-148.88;53.87;75220.72;5073854;28;20482;-83
2022/09/23 10:19:41;;;;;;;4.72;2.92;;;;;;;-148.88;53.06;75212.59;5072627;28;20046;-84
2022/09/23 10:22:20;;;;;;;5.43;3.03;;;;;;;-148.88;53.38;75220.72;5073792;28;20020;-85
2022/09/23 10:24:51;;;;;;;6.43;3.25;;;;;;;-148.88;54.65;75216.66;5072088;28;20393;-87
2022/09/23 10:27:26;;;;;;;5.28;3.10;;;;;;;-148.88;54.10;75220.72;5073188;28;20035;-87
2022/09/23 10:30:02;;;;;;;7.82;3.20;;;;;;;-148.88;53.54;75230.88;5072943;28;20108;-87
2022/09/23 10:32:43;;;;;;;4.40;2.85;;;;;;;-148.88;55.41;75230.88;5074880;28;20031;-86
2022/09/23 10:35:12;;;;;;;6.60;2.72;;;;;;;-148.88;54.97;75249.16;5073669;28;20031;-86
2022/09/23 10:37:57;;;;;;;5.57;2.60;;;;;;;-148.88;54.41;75253.22;5072464;28;20068;-86
2022/09/23 10:46:38;;;;;;;4.13;2.70;;;;;;;-148.88;53.76;75249.16;5074601;28;20039;-87
2022/09/23 10:49:22;;;;;;;;;;;;;;;-148.88;52.58;75263.38;5037271;28;20036;-86
2022/09/23 10:52:11;;;;;;;5.03;2.33;;;;;;;-148.88;55.60;75249.16;5072474;28;19912;-87
2022/09/23 10:54:55;;;;;;;3.80;2.42;;;;;;;-148.88;54.39;75228.84;5072459;28;20375;-86
2022/09/23 10:57:45;;;;;;;4.95;2.67;;;;;;;-148.88;52.72;75220.72;5072698;28;20055;-86
2022/09/23 11:00:55;;;;;;;6.22;2.38;;;;;;;-148.88;53.20;75236.97;5073819;28;20031;-85
2022/09/23 11:03:30;;;;;;;4.40;2.00;;;;;;;-148.88;51.15;75241.03;5072724;28;20024;-87
2022/09/23 11:06:21;;;;;;;3.30;1.90;;;;;;;-148.88;49.98;75251.19;5072182;28;20590;-87
2022/09/23 11:09:12;;;;;;;2.50;1.65;;;;;;;-148.88;49.09;75241.03;5072592;28;20028;-88
2022/09/23 11:12:10;;;;;;;4.15;2.05;;;;;;;-148.88;50.33;75230.88;5073052;28;20082;-87
2022/09/23 11:14:50;;;;;;;4.07;1.90;;;;;;;-148.88;49.70;75232.91;5066642;28;20067;-86
2022/09/23 11:17:49;;;;;;;3.90;1.75;;;;;;;-148.88;48.80;75224.78;5072303;28;20025;-87
2022/09/23 11:20:53;;;;;;;6.50;1.98;;;;;;;-148.88;50.88;75208.53;5072311;28;20481;-86
2022/09/23 11:23:43;;;;;;;4.20;2.33;;;;;;;-148.88;49.62;75216.66;5072390;28;20127;-87
2022/09/23 11:26:33;;;;;;;3.83;2.30;;;;;;;-148.88;49.96;75204.47;5072001;28;20466;-87
2022/09/23 11:29:10;;;;;;;4.47;2.13;;;;;;;-148.88;49.13;75224.78;5072152;28;20037;-86
2022/09/23 11:32:13;;;;;;;2.97;2.05;;;;;;;-148.88;50.79;75216.66;5072626;28;20024;-86
2022/09/23 11:35:02;;;;;;;4.93;2.25;;;;;;;-148.88;49.68;75208.53;5072730;28;20025;-86
2022/09/23 11:37:32;;;;;;;6.60;2.45;;;;;;;-148.88;51.42;75184.16;5072170;28;20474;-86
2022/09/23 11:40:19;;;;;;;4.45;2.50;;;;;;;-148.88;50.05;75188.22;5071977;28;20040;-86
2022/09/23 11:43:13;;;;;;;4.50;2.30;;;;;;;-148.88;50.51;75171.97;5071855;28;20020;-86
2022/09/23 11:45:51;;;;;;;7.07;2.37;;;;;;;-148.88;50.47;75176.03;5072190;28;20473;-85
2022/09/23 11:48:33;;;;;;;4.35;2.20;;;;;;;-148.88;50.31;75186.19;5073386;28;20309;-86
2022/09/23 11:51:17;;;;;;;5.45;2.28;;;;;;;-148.88;52.20;75178.06;5076147;28;20031;-86
2022/09/23 11:54:10;;;;;;;5.63;2.35;;;;;;;-148.88;52.11;75157.75;5076544;28;20021;-86
2022/09/23 11:56:42;;;;;;;6.82;2.50;;;;;;;-148.88;51.71;75169.94;5077643;28;20020;-87